createdAt,value
2017-05-15T00:00:20.104Z,0
2017-05-15T00:01:20.858Z,0
2017-05-15T00:02:21.837Z,0
2017-05-15T00:03:22.567Z,0
2017-05-15T00:04:23.321Z,0
2017-05-15T00:05:24.049Z,0
2017-05-15T00:06:24.777Z,0
2017-05-15T00:07:25.751Z,0
2017-05-15T00:08:26.481Z,0
2017-05-15T00:09:27.208Z,0
2017-05-15T00:10:27.940Z,0
2017-05-15T00:11:28.667Z,0
2017-05-15T00:12:29.670Z,0
2017-05-15T00:13:30.396Z,0
2017-05-15T00:14:31.126Z,0
2017-05-15T00:15:31.856Z,0
2017-05-15T00:16:32.586Z,0
2017-05-15T00:17:33.563Z,0
2017-05-15T00:18:34.623Z,0
2017-05-15T00:19:35.279Z,0
2017-05-15T00:20:36.009Z,0
2017-05-15T00:21:36.739Z,0
2017-05-15T00:22:37.717Z,0
2017-05-15T00:23:38.445Z,0
2017-05-15T00:24:39.173Z,0
2017-05-15T00:25:39.899Z,0
2017-05-15T00:26:40.627Z,0
2017-05-15T00:27:41.604Z,0
2017-05-15T00:28:42.330Z,0
2017-05-15T00:29:43.068Z,0
2017-05-15T00:30:43.816Z,0
2017-05-15T00:31:44.542Z,0
2017-05-15T00:32:45.516Z,0
2017-05-15T00:33:46.241Z,0
2017-05-15T00:34:46.971Z,0
2017-05-15T00:35:47.697Z,0
2017-05-15T00:36:48.428Z,0
2017-05-15T00:37:49.482Z,0
2017-05-15T00:38:50.211Z,0
2017-05-15T00:39:50.941Z,0
2017-05-15T00:40:51.666Z,0
2017-05-15T00:41:52.396Z,0
2017-05-15T00:42:53.373Z,0
2017-05-15T00:43:54.102Z,0
2017-05-15T00:44:54.830Z,0
2017-05-15T00:45:55.559Z,0
2017-05-15T00:46:56.284Z,0
2017-05-15T00:47:57.260Z,0
2017-05-15T00:48:57.987Z,0
2017-05-15T00:49:58.716Z,0
2017-05-15T00:50:59.441Z,0
2017-05-15T00:58:18.342Z,0
2017-05-15T00:59:19.071Z,0
2017-05-15T01:00:19.794Z,0
2017-05-15T01:01:20.520Z,0
2017-05-15T01:02:21.249Z,0
2017-05-15T01:03:22.224Z,0
2017-05-15T01:04:22.950Z,0
2017-05-15T01:05:23.675Z,0
2017-05-15T01:06:24.403Z,0
2017-05-15T01:07:25.129Z,0
2017-05-15T01:08:26.104Z,0
2017-05-15T01:09:26.829Z,0
2017-05-15T01:10:27.559Z,0
2017-05-15T01:11:28.283Z,0
2017-05-15T01:12:29.012Z,0
2017-05-15T01:13:29.986Z,0
2017-05-15T01:14:30.715Z,0
2017-05-15T01:15:31.439Z,0
2017-05-15T01:16:32.165Z,0
2017-05-15T01:17:32.892Z,0
2017-05-15T01:18:33.869Z,0
2017-05-15T01:31:59.702Z,0
2017-05-15T01:33:00.454Z,0
2017-05-15T01:34:01.186Z,0
2017-05-15T01:38:37.996Z,0
2017-05-15T01:39:38.723Z,0
2017-05-15T01:40:39.473Z,0
2017-05-15T01:41:40.201Z,0
2017-05-15T01:46:27.936Z,0
2017-05-15T01:47:28.660Z,0
2017-05-15T01:48:29.389Z,0
2017-05-15T01:49:30.112Z,0
2017-05-15T01:50:30.837Z,0
2017-05-15T01:51:31.815Z,0
2017-05-15T01:52:32.542Z,0
2017-05-15T01:53:33.269Z,0
2017-05-15T01:54:34.247Z,0
2017-05-15T01:55:34.973Z,0
2017-05-15T01:56:35.701Z,0
2017-05-15T01:57:36.453Z,0
2017-05-15T01:58:37.177Z,0
2017-05-15T01:59:38.154Z,0
2017-05-15T02:00:38.879Z,0
2017-05-15T02:01:39.605Z,0
2017-05-15T02:02:40.331Z,0
2017-05-15T02:03:41.059Z,0
2017-05-15T02:04:42.032Z,0
2017-05-15T02:05:42.760Z,0
2017-05-15T02:06:43.486Z,0
2017-05-15T02:07:44.211Z,0
2017-05-15T02:08:44.938Z,0
2017-05-15T02:09:45.937Z,0
2017-05-15T02:10:46.663Z,0
2017-05-15T02:11:47.391Z,0
2017-05-15T02:12:48.115Z,0
2017-05-15T02:13:48.843Z,0
2017-05-15T02:14:49.821Z,0
2017-05-15T02:15:50.593Z,0
2017-05-15T02:16:51.274Z,0
2017-05-15T02:17:52.001Z,0
2017-05-15T02:18:52.749Z,0
2017-05-15T02:19:53.727Z,0
2017-05-15T02:20:54.453Z,0
2017-05-15T02:21:55.181Z,0
2017-05-15T02:22:55.900Z,0
2017-05-15T02:23:56.653Z,0
2017-05-15T02:24:57.629Z,0
2017-05-15T02:25:58.355Z,0
2017-05-15T02:26:59.079Z,0
2017-05-15T02:27:59.804Z,0
2017-05-15T02:29:00.538Z,0
2017-05-15T02:30:01.515Z,0
2017-05-15T02:31:02.239Z,0
2017-05-15T02:32:02.966Z,0
2017-05-15T02:33:03.692Z,0
2017-05-15T02:34:04.429Z,0
2017-05-15T02:35:05.395Z,0
2017-05-15T02:36:06.120Z,0
2017-05-15T02:37:06.847Z,0
2017-05-15T02:38:07.573Z,0
2017-05-15T02:39:08.301Z,0
2017-05-15T02:40:09.279Z,0
2017-05-15T02:41:10.027Z,0
2017-05-15T02:42:10.754Z,0
2017-05-15T02:43:11.482Z,0
2017-05-15T02:44:12.208Z,0
2017-05-15T02:45:13.188Z,0
2017-05-15T02:46:13.915Z,0
2017-05-15T02:47:14.641Z,0
2017-05-15T02:48:15.373Z,0
2017-05-15T02:49:16.097Z,0
2017-05-15T02:50:17.074Z,0
2017-05-15T02:51:17.800Z,0
2017-05-15T02:52:18.529Z,0
2017-05-15T02:53:19.254Z,0
2017-05-15T02:54:19.979Z,0
2017-05-15T02:55:20.959Z,0
2017-05-15T02:56:21.676Z,0
2017-05-15T02:57:22.402Z,0
2017-05-15T02:58:23.127Z,0
2017-05-15T02:59:23.855Z,0
2017-05-15T03:00:24.827Z,0
2017-05-15T03:01:25.550Z,4
2017-05-15T03:02:26.276Z,4
2017-05-15T03:03:27.028Z,0
2017-05-15T03:04:27.755Z,4
2017-05-15T03:05:28.732Z,4
2017-05-15T03:06:29.457Z,4
2017-05-15T03:07:30.187Z,4
2017-05-15T03:08:30.911Z,4
2017-05-15T03:09:31.637Z,4
2017-05-15T03:10:32.615Z,8
2017-05-15T03:11:33.341Z,8
2017-05-15T03:12:34.067Z,8
2017-05-15T03:13:34.796Z,12
2017-05-15T03:14:35.523Z,16
2017-05-15T03:15:36.501Z,16
2017-05-15T03:16:37.230Z,16
2017-05-15T03:17:37.958Z,20
2017-05-15T03:18:38.680Z,20
2017-05-15T03:19:39.405Z,28
2017-05-15T03:20:40.385Z,32
2017-05-15T03:21:41.114Z,36
2017-05-15T03:22:41.840Z,40
2017-05-15T03:23:42.572Z,44
2017-05-15T03:24:43.321Z,48
2017-05-15T03:25:44.297Z,56
2017-05-15T03:26:45.025Z,60
2017-05-15T03:27:45.753Z,64
2017-05-15T03:28:46.479Z,76
2017-05-15T03:29:47.208Z,84
2017-05-15T03:30:48.209Z,92
2017-05-15T03:31:48.939Z,104
2017-05-15T03:32:49.665Z,112
2017-05-15T03:33:50.396Z,124
2017-05-15T03:34:51.126Z,132
2017-05-15T03:35:52.105Z,148
2017-05-15T03:36:52.834Z,156
2017-05-15T03:37:53.564Z,172
2017-05-15T03:38:54.294Z,184
2017-05-15T03:39:55.022Z,196
2017-05-15T03:40:56.003Z,212
2017-05-15T03:41:56.731Z,228
2017-05-15T03:42:57.463Z,240
2017-05-15T03:43:58.190Z,260
2017-05-15T03:44:58.923Z,276
2017-05-15T03:45:59.902Z,292
2017-05-15T03:47:00.630Z,312
2017-05-15T03:48:01.365Z,332
2017-05-15T03:49:02.094Z,352
2017-05-15T03:50:02.825Z,376
2017-05-15T03:51:03.803Z,400
2017-05-15T03:52:04.532Z,424
2017-05-15T03:53:05.262Z,448
2017-05-15T03:54:05.994Z,472
2017-05-15T03:55:06.748Z,492
2017-05-15T03:56:07.729Z,516
2017-05-15T03:57:08.457Z,544
2017-05-15T03:58:09.191Z,568
2017-05-15T03:59:09.919Z,592
2017-05-15T04:00:10.647Z,616
2017-05-15T04:01:11.627Z,640
2017-05-15T04:02:12.354Z,668
2017-05-15T04:03:13.083Z,688
2017-05-15T04:04:13.816Z,716
2017-05-15T04:05:14.546Z,740
2017-05-15T04:06:15.524Z,764
2017-05-15T04:07:16.257Z,792
2017-05-15T04:08:16.988Z,816
2017-05-15T04:09:17.718Z,840
2017-05-15T04:10:18.446Z,864
2017-05-15T04:11:19.429Z,888
2017-05-15T04:12:20.158Z,916
2017-05-15T04:13:20.916Z,940
2017-05-15T04:14:21.643Z,964
2017-05-15T04:15:22.373Z,988
2017-05-15T04:16:23.355Z,1012
2017-05-15T04:17:24.085Z,1036
2017-05-15T04:18:24.818Z,1060
2017-05-15T04:19:25.545Z,1084
2017-05-15T04:20:26.278Z,1108
2017-05-15T04:21:27.258Z,1132
2017-05-15T04:22:27.987Z,1156
2017-05-15T04:23:28.721Z,1176
2017-05-15T04:24:29.447Z,1200
2017-05-15T04:25:30.180Z,1224
2017-05-15T04:26:31.163Z,1248
2017-05-15T04:27:31.891Z,1264
2017-05-15T04:28:32.624Z,1288
2017-05-15T04:29:33.352Z,1308
2017-05-15T04:30:34.078Z,1336
2017-05-15T04:31:35.059Z,1356
2017-05-15T04:32:35.789Z,1380
2017-05-15T04:33:36.519Z,1404
2017-05-15T04:34:37.247Z,1424
2017-05-15T04:35:37.980Z,1452
2017-05-15T04:36:38.972Z,1480
2017-05-15T04:37:39.693Z,1512
2017-05-15T04:38:40.423Z,1544
2017-05-15T04:39:41.155Z,1572
2017-05-15T04:40:41.878Z,1608
2017-05-15T04:41:42.861Z,1640
2017-05-15T04:42:43.590Z,1664
2017-05-15T04:43:44.321Z,1688
2017-05-15T04:44:45.053Z,1716
2017-05-15T04:45:45.786Z,1740
2017-05-15T04:46:46.768Z,1760
2017-05-15T04:47:47.524Z,1788
2017-05-15T04:48:48.286Z,1820
2017-05-15T04:49:49.015Z,1856
2017-05-15T04:50:49.744Z,1896
2017-05-15T04:51:50.726Z,1928
2017-05-15T04:52:51.481Z,1960
2017-05-15T04:53:52.215Z,1984
2017-05-15T04:54:52.947Z,2008
2017-05-15T04:55:53.704Z,2036
2017-05-15T04:56:54.943Z,2064
2017-05-15T04:57:55.701Z,2084
2017-05-15T04:58:56.435Z,2080
2017-05-15T04:59:57.165Z,2076
2017-05-15T05:00:57.896Z,2064
2017-05-15T05:01:58.877Z,2044
2017-05-15T05:02:59.609Z,2028
2017-05-15T05:04:00.345Z,2028
2017-05-15T05:05:01.074Z,2028
2017-05-15T05:06:01.830Z,2028
2017-05-15T05:07:02.810Z,2036
2017-05-15T05:08:03.543Z,2048
2017-05-15T05:09:04.275Z,2068
2017-05-15T05:10:05.007Z,2088
2017-05-15T05:11:05.734Z,2100
2017-05-15T05:12:06.742Z,2108
2017-05-15T05:13:07.473Z,2120
2017-05-15T05:14:08.208Z,2128
2017-05-15T05:15:08.942Z,2152
2017-05-15T05:16:09.675Z,2164
2017-05-15T05:17:10.656Z,2184
2017-05-15T05:18:11.391Z,2196
2017-05-15T05:19:12.123Z,2212
2017-05-15T05:20:12.884Z,2228
2017-05-15T05:21:13.616Z,2244
2017-05-15T05:22:14.603Z,2260
2017-05-15T05:23:15.334Z,2280
2017-05-15T05:24:16.066Z,2276
2017-05-15T05:25:16.801Z,2280
2017-05-15T05:26:17.533Z,2284
2017-05-15T05:27:18.540Z,2292
2017-05-15T05:28:19.273Z,2304
2017-05-15T05:29:20.005Z,2312
2017-05-15T05:30:20.739Z,2328
2017-05-15T05:31:21.472Z,2344
2017-05-15T05:32:22.452Z,2352
2017-05-15T05:33:23.187Z,2360
2017-05-15T05:34:23.941Z,2364
2017-05-15T05:35:24.673Z,2376
2017-05-15T05:36:25.405Z,2400
2017-05-15T05:37:26.388Z,2444
2017-05-15T05:38:27.121Z,2480
2017-05-15T05:39:27.878Z,2508
2017-05-15T05:40:28.612Z,2536
2017-05-15T05:41:29.343Z,2528
2017-05-15T05:42:30.325Z,2472
2017-05-15T05:43:31.068Z,2492
2017-05-15T05:44:31.789Z,2520
2017-05-15T05:45:32.547Z,2516
2017-05-15T05:46:33.280Z,2520
2017-05-15T05:47:34.263Z,2536
2017-05-15T05:48:34.998Z,2560
2017-05-15T05:49:35.729Z,2564
2017-05-15T05:50:36.463Z,2600
2017-05-15T05:51:37.197Z,2620
2017-05-15T05:52:38.182Z,2624
2017-05-15T05:53:38.914Z,2640
2017-05-15T05:54:39.649Z,2672
2017-05-15T05:55:40.382Z,2688
2017-05-15T05:56:41.116Z,2684
2017-05-15T05:57:42.098Z,2696
2017-05-15T05:58:42.828Z,2704
2017-05-15T05:59:43.563Z,2700
2017-05-15T06:00:44.296Z,2728
2017-05-15T06:01:45.028Z,2760
2017-05-15T06:02:46.011Z,2788
2017-05-15T06:03:46.744Z,2796
2017-05-15T06:04:47.503Z,2812
2017-05-15T06:05:48.237Z,2836
2017-05-15T06:06:48.966Z,2844
2017-05-15T06:07:49.948Z,2864
2017-05-15T06:08:50.675Z,2880
2017-05-15T06:09:51.408Z,2896
2017-05-15T06:10:52.139Z,2904
2017-05-15T06:11:52.874Z,2916
2017-05-15T06:12:53.857Z,2928
2017-05-15T06:13:54.588Z,2940
2017-05-15T06:14:55.397Z,2964
2017-05-15T06:15:56.077Z,2988
2017-05-15T06:16:56.812Z,3000
2017-05-15T06:17:57.793Z,3016
2017-05-15T06:18:58.527Z,3036
2017-05-15T06:19:59.261Z,3048
2017-05-15T06:20:59.993Z,3060
2017-05-15T06:22:00.725Z,3076
2017-05-15T06:23:01.710Z,3100
2017-05-15T06:24:02.469Z,3100
2017-05-15T06:25:03.199Z,3132
2017-05-15T06:26:03.931Z,3164
2017-05-15T06:27:04.663Z,3180
2017-05-15T06:28:05.646Z,3188
2017-05-15T06:29:06.379Z,3232
2017-05-15T06:30:07.113Z,3244
2017-05-15T06:31:07.846Z,3256
2017-05-15T06:32:08.578Z,3300
2017-05-15T06:33:09.563Z,3328
2017-05-15T06:34:10.297Z,3372
2017-05-15T06:35:11.034Z,3384
2017-05-15T06:36:11.764Z,3396
2017-05-15T06:37:12.498Z,3384
2017-05-15T06:38:13.483Z,3408
2017-05-15T06:39:14.213Z,3408
2017-05-15T06:40:14.948Z,3492
2017-05-15T06:41:15.680Z,3568
2017-05-15T06:42:16.417Z,3564
2017-05-15T06:43:17.399Z,3540
2017-05-15T06:44:18.131Z,3512
2017-05-15T06:45:18.867Z,3504
2017-05-15T06:46:19.603Z,3488
2017-05-15T06:47:20.337Z,3488
2017-05-15T06:48:21.321Z,3504
2017-05-15T06:49:22.053Z,3468
2017-05-15T06:50:22.810Z,3460
2017-05-15T06:51:23.541Z,3528
2017-05-15T06:52:24.300Z,3548
2017-05-15T06:53:25.309Z,3568
2017-05-15T06:54:26.040Z,3536
2017-05-15T06:55:27.037Z,3592
2017-05-15T06:56:27.770Z,3632
2017-05-15T06:57:28.505Z,3640
2017-05-15T06:58:29.487Z,3648
2017-05-15T06:59:30.219Z,3664
2017-05-15T07:00:30.982Z,3660
2017-05-15T07:01:31.712Z,3668
2017-05-15T07:02:32.470Z,3672
2017-05-15T07:03:33.456Z,3672
2017-05-15T07:04:34.215Z,3700
2017-05-15T07:05:34.950Z,3696
2017-05-15T07:06:35.684Z,3744
2017-05-15T07:07:36.419Z,3764
2017-05-15T07:08:37.402Z,3776
2017-05-15T07:09:38.135Z,3828
2017-05-15T07:10:38.864Z,3884
2017-05-15T07:11:39.598Z,3908
2017-05-15T07:12:40.332Z,3992
2017-05-15T07:13:41.316Z,4048
2017-05-15T07:14:42.050Z,4128
2017-05-15T07:15:42.785Z,4216
2017-05-15T07:16:43.520Z,4272
2017-05-15T07:17:44.258Z,4324
2017-05-15T07:18:45.246Z,4372
2017-05-15T07:19:45.980Z,4424
2017-05-15T07:20:46.715Z,4472
2017-05-15T07:21:47.455Z,4528
2017-05-15T07:22:48.197Z,4584
2017-05-15T07:23:49.189Z,4692
2017-05-15T07:24:49.933Z,4712
2017-05-15T07:25:50.678Z,4828
2017-05-15T07:26:51.447Z,4896
2017-05-15T07:27:52.189Z,5044
2017-05-15T07:28:53.183Z,5184
2017-05-15T07:29:53.930Z,5352
2017-05-15T07:30:54.666Z,5604
2017-05-15T07:31:55.416Z,5812
2017-05-15T07:32:56.159Z,6120
2017-05-15T07:33:57.156Z,6492
2017-05-15T07:34:57.900Z,6924
2017-05-15T07:35:58.651Z,7488
2017-05-15T07:36:59.419Z,8440
2017-05-15T07:38:00.164Z,16128
2017-05-15T07:39:01.154Z,43264
2017-05-15T07:40:01.901Z,54784
2017-05-15T07:41:02.652Z,50176
2017-05-15T07:42:03.393Z,54528
2017-05-15T07:43:04.137Z,57120
2017-05-15T07:44:05.135Z,58656
2017-05-15T07:45:05.879Z,61344
2017-05-15T07:46:06.621Z,62368
2017-05-15T07:47:07.365Z,63072
2017-05-15T07:48:08.109Z,64256
2017-05-15T07:49:09.101Z,64288
2017-05-15T07:50:09.847Z,65024
2017-05-15T07:51:10.590Z,64384
2017-05-15T07:52:11.334Z,64416
2017-05-15T07:53:12.077Z,64192
2017-05-15T07:54:13.073Z,64160
2017-05-15T07:55:13.818Z,67296
2017-05-15T07:56:14.590Z,68032
2017-05-15T07:57:15.334Z,68128
2017-05-15T07:58:16.079Z,67904
2017-05-15T07:59:17.078Z,68832
2017-05-15T08:00:17.818Z,69184
2017-05-15T08:01:18.564Z,68096
2017-05-15T08:02:19.315Z,68160
2017-05-15T08:03:20.061Z,68160
2017-05-15T08:04:21.079Z,68032
2017-05-15T08:05:21.823Z,67968
2017-05-15T08:06:22.571Z,68288
2017-05-15T08:07:23.317Z,69312
2017-05-15T08:08:24.064Z,69760
2017-05-15T08:09:25.058Z,72672
2017-05-15T08:10:25.803Z,71968
2017-05-15T08:11:26.550Z,71808
2017-05-15T08:12:27.298Z,70624
2017-05-15T08:13:28.043Z,72320
2017-05-15T08:14:29.042Z,72352
2017-05-15T08:15:29.787Z,72576
2017-05-15T08:16:30.535Z,74880
2017-05-15T08:17:31.282Z,75936
2017-05-15T08:18:32.025Z,76896
2017-05-15T08:19:33.015Z,74400
2017-05-15T08:20:33.760Z,74784
2017-05-15T08:22:47.742Z,74112
2017-05-15T08:23:48.487Z,74368
2017-05-15T08:24:49.487Z,73216
2017-05-15T08:25:50.232Z,74240
2017-05-15T08:26:50.979Z,75776
2017-05-15T08:27:51.724Z,76672
2017-05-15T08:28:52.471Z,74752
2017-05-15T08:29:53.461Z,74528
2017-05-15T08:30:54.208Z,79712
2017-05-15T08:31:54.955Z,77984
2017-05-15T08:32:55.729Z,77280
2017-05-15T08:33:56.475Z,74336
2017-05-15T08:34:57.473Z,75776
2017-05-15T08:35:58.219Z,73600
2017-05-15T08:36:58.965Z,71712
2017-05-15T08:37:59.717Z,70880
2017-05-15T08:39:00.464Z,75200
2017-05-15T08:40:01.487Z,71904
2017-05-15T08:41:02.235Z,75456
2017-05-15T08:42:02.984Z,77536
2017-05-15T08:43:03.731Z,78464
2017-05-15T08:44:04.480Z,79520
2017-05-15T08:45:05.479Z,80704
2017-05-15T08:46:06.227Z,83200
2017-05-15T08:47:06.974Z,80096
2017-05-15T08:48:07.722Z,82144
2017-05-15T08:49:08.471Z,81792
2017-05-15T08:50:09.475Z,79136
2017-05-15T08:51:10.217Z,81344
2017-05-15T08:52:10.962Z,78848
2017-05-15T08:53:11.712Z,82176
2017-05-15T08:54:12.460Z,79616
2017-05-15T08:55:13.465Z,80704
2017-05-15T08:56:14.214Z,83200
2017-05-15T08:57:14.962Z,82976
2017-05-15T08:58:15.715Z,83232
2017-05-15T08:59:16.467Z,84128
2017-05-15T09:00:17.475Z,83584
2017-05-15T09:01:18.227Z,82368
2017-05-15T09:02:18.985Z,81856
2017-05-15T09:03:19.740Z,80576
2017-05-15T09:04:20.491Z,71968
2017-05-15T09:05:21.497Z,78848
2017-05-15T09:06:22.245Z,77600
2017-05-15T09:07:23.006Z,76672
2017-05-15T09:08:23.762Z,72704
2017-05-15T09:09:24.517Z,68448
2017-05-15T09:10:25.526Z,79424
2017-05-15T09:11:26.284Z,68480
2017-05-15T09:12:27.040Z,77888
2017-05-15T09:13:27.798Z,79392
2017-05-15T09:14:28.559Z,72096
2017-05-15T09:15:29.567Z,77184
2017-05-15T09:16:30.323Z,82592
2017-05-15T09:17:31.082Z,81248
2017-05-15T09:18:31.837Z,78336
2017-05-15T09:19:32.591Z,76896
2017-05-15T09:20:33.594Z,82240
2017-05-15T09:21:34.349Z,83040
2017-05-15T09:22:35.107Z,81280
2017-05-15T09:23:35.864Z,83584
2017-05-15T09:24:36.631Z,75136
2017-05-15T09:25:37.682Z,89184
2017-05-15T09:26:38.438Z,81728
2017-05-15T09:27:39.191Z,79232
2017-05-15T09:28:39.946Z,86656
2017-05-15T09:29:40.710Z,77024
2017-05-15T09:30:41.721Z,81152
2017-05-15T09:31:42.474Z,78752
2017-05-15T09:32:43.231Z,79424
2017-05-15T09:33:43.989Z,84608
2017-05-15T09:34:44.745Z,82368
2017-05-15T09:35:45.750Z,85472
2017-05-15T09:36:46.505Z,78528
2017-05-15T09:37:47.264Z,87840
2017-05-15T09:38:48.046Z,85056
2017-05-15T09:39:48.802Z,89408
2017-05-15T09:40:49.808Z,85024
2017-05-15T09:41:50.563Z,86528
2017-05-15T09:42:51.322Z,86784
2017-05-15T09:43:52.077Z,88384
2017-05-15T09:44:52.857Z,88864
2017-05-15T09:45:53.867Z,85184
2017-05-15T09:46:54.621Z,84352
2017-05-15T09:47:55.377Z,84480
2017-05-15T09:48:56.142Z,85120
2017-05-15T09:49:56.915Z,82912
2017-05-15T09:50:57.924Z,85216
2017-05-15T09:51:58.684Z,68640
2017-05-15T09:52:59.442Z,75680
2017-05-15T09:54:00.202Z,78496
2017-05-15T09:55:00.960Z,71936
2017-05-15T09:56:01.968Z,55968
2017-05-15T09:57:02.724Z,81312
2017-05-15T09:58:03.484Z,83232
2017-05-15T09:59:04.245Z,87200
2017-05-15T10:00:05.003Z,88000
2017-05-15T10:01:06.038Z,96704
2017-05-15T10:02:06.794Z,103424
2017-05-15T10:03:07.554Z,104544
2017-05-15T10:04:08.312Z,100544
2017-05-15T10:05:09.071Z,99392
2017-05-15T10:06:10.080Z,103904
2017-05-15T10:07:10.838Z,100832
2017-05-15T10:08:11.600Z,102976
2017-05-15T10:09:12.358Z,104224
2017-05-15T10:10:13.121Z,22560
2017-05-15T10:11:14.126Z,64192
2017-05-15T10:12:14.885Z,20832
2017-05-15T10:13:15.644Z,56256
2017-05-15T10:14:16.402Z,50912
2017-05-15T10:15:17.152Z,28768
2017-05-15T10:16:18.156Z,13528
2017-05-15T10:17:18.909Z,14712
2017-05-15T10:18:19.665Z,24000
2017-05-15T10:19:20.419Z,22048
2017-05-15T10:20:21.503Z,14240
2017-05-15T10:21:22.439Z,13320
2017-05-15T10:22:23.197Z,14072
2017-05-15T10:23:23.948Z,104800
2017-05-15T10:24:24.706Z,100896
2017-05-15T10:25:25.459Z,68448
2017-05-15T10:26:26.472Z,105184
2017-05-15T10:27:27.231Z,104064
2017-05-15T10:28:27.988Z,101568
2017-05-15T10:29:28.744Z,103616
2017-05-15T10:30:29.502Z,102464
2017-05-15T10:31:30.510Z,98304
2017-05-15T10:32:31.264Z,102400
2017-05-15T10:33:32.022Z,98624
2017-05-15T10:34:32.778Z,95584
2017-05-15T10:35:33.536Z,102336
2017-05-15T10:36:34.543Z,98240
2017-05-15T10:37:35.301Z,21216
2017-05-15T10:38:36.055Z,13632
2017-05-15T10:39:36.811Z,12504
2017-05-15T10:40:37.564Z,90240
2017-05-15T10:41:38.568Z,79712
2017-05-15T10:42:39.321Z,100448
2017-05-15T10:43:40.075Z,99296
2017-05-15T10:44:40.829Z,98688
2017-05-15T10:45:41.586Z,93824
2017-05-15T10:46:42.592Z,93344
2017-05-15T10:47:43.352Z,89760
2017-05-15T10:48:44.107Z,90144
2017-05-15T10:49:44.865Z,92992
2017-05-15T10:50:45.624Z,93184
2017-05-15T10:51:46.680Z,96896
2017-05-15T10:52:47.383Z,96640
2017-05-15T10:53:48.137Z,95424
2017-05-15T10:54:48.892Z,98080
2017-05-15T10:55:49.651Z,98624
2017-05-15T10:56:50.656Z,100160
2017-05-15T10:57:51.432Z,95328
2017-05-15T10:58:52.190Z,97728
2017-05-15T10:59:52.947Z,101760
2017-05-15T11:00:53.705Z,92608
2017-05-15T11:01:54.710Z,91648
2017-05-15T11:02:55.464Z,95840
2017-05-15T11:03:56.217Z,95072
2017-05-15T11:04:56.978Z,97888
2017-05-15T11:05:57.765Z,99296
2017-05-15T11:06:58.768Z,96800
2017-05-15T11:07:59.524Z,97408
2017-05-15T11:09:00.281Z,100672
2017-05-15T11:10:01.064Z,98752
2017-05-15T11:11:01.821Z,99136
2017-05-15T11:12:02.829Z,96960
2017-05-15T11:13:03.584Z,99552
2017-05-15T11:14:04.340Z,98272
2017-05-15T11:15:05.095Z,93824
2017-05-15T11:16:05.855Z,93760
2017-05-15T11:17:06.882Z,86336
2017-05-15T11:18:07.662Z,84768
2017-05-15T11:19:08.419Z,87264
2017-05-15T11:20:09.177Z,86112
2017-05-15T11:21:09.935Z,89728
2017-05-15T11:22:10.937Z,86432
2017-05-15T11:23:11.694Z,91104
2017-05-15T11:24:12.475Z,93792
2017-05-15T11:25:13.235Z,88928
2017-05-15T11:26:13.993Z,86016
2017-05-15T11:39:51.201Z,86560
2017-05-15T11:40:51.959Z,83616
2017-05-15T11:41:52.740Z,85184
2017-05-15T11:42:53.497Z,77568
2017-05-15T11:43:54.252Z,73344
2017-05-15T11:48:31.166Z,81920
2017-05-15T11:49:32.121Z,86976
2017-05-15T11:50:32.878Z,85440
2017-05-15T11:51:33.640Z,83264
2017-05-15T11:52:34.393Z,91200
2017-05-15T11:53:35.424Z,91872
2017-05-15T11:54:36.181Z,87744
2017-05-15T11:55:36.936Z,91232
2017-05-15T11:56:37.692Z,92384
2017-05-15T12:00:09.941Z,87680
2017-05-15T12:01:10.700Z,93856
2017-05-15T12:07:14.193Z,74048
2017-05-15T12:08:14.975Z,76512
2017-05-15T12:09:15.732Z,75968
2017-05-15T12:10:16.487Z,80704
2017-05-15T12:11:17.440Z,79072
2017-05-15T12:12:18.447Z,86912
2017-05-15T12:13:19.228Z,95232
2017-05-15T12:14:19.982Z,41248
2017-05-15T12:15:20.739Z,73888
2017-05-15T12:23:44.953Z,92096
2017-05-15T12:28:21.857Z,85920
2017-05-15T12:29:22.611Z,84320
2017-05-15T12:30:23.366Z,108640
2017-05-15T12:31:24.147Z,110720
2017-05-15T12:32:24.909Z,74976
2017-05-15T12:33:25.912Z,86656
2017-05-15T12:34:26.693Z,120992
2017-05-15T12:35:27.479Z,93888
2017-05-15T12:36:28.237Z,73696
2017-05-15T12:41:16.101Z,85760
2017-05-15T12:42:16.861Z,86432
2017-05-15T12:46:53.516Z,89504
2017-05-15T12:47:54.273Z,88512
2017-05-15T12:48:55.278Z,88384
2017-05-15T12:49:56.035Z,91424
2017-05-15T12:54:44.125Z,80096
2017-05-15T12:58:23.170Z,48608
2017-05-15T12:59:23.925Z,60832
2017-05-15T13:00:24.680Z,75264
2017-05-15T13:01:25.432Z,77440
2017-05-15T13:02:26.188Z,73184
2017-05-15T13:03:27.198Z,83680
2017-05-15T13:04:27.955Z,85984
2017-05-15T13:05:28.731Z,77152
2017-05-15T13:06:29.494Z,57376
2017-05-15T13:07:30.256Z,87232
2017-05-15T13:08:31.334Z,18144
2017-05-15T13:09:32.090Z,81184
2017-05-15T13:10:32.843Z,81344
2017-05-15T13:11:33.598Z,81472
2017-05-15T13:12:34.355Z,78688
2017-05-15T13:13:35.365Z,84128
2017-05-15T13:14:36.124Z,80800
2017-05-15T13:15:36.882Z,84256
2017-05-15T13:16:37.642Z,67296
2017-05-15T13:17:38.404Z,76448
2017-05-15T13:18:39.412Z,79008
2017-05-15T13:19:40.175Z,78816
2017-05-15T13:20:40.927Z,78304
2017-05-15T13:21:41.709Z,78432
2017-05-15T13:22:42.466Z,74240
2017-05-15T13:23:43.502Z,17536
2017-05-15T13:24:44.262Z,33088
2017-05-15T13:25:45.019Z,53568
2017-05-15T13:26:45.774Z,48320
2017-05-15T13:27:46.533Z,62304
2017-05-15T13:28:47.540Z,67360
2017-05-15T13:29:48.297Z,70720
2017-05-15T13:30:49.054Z,60768
2017-05-15T13:31:49.804Z,67456
2017-05-15T13:32:50.560Z,69600
2017-05-15T13:33:51.618Z,72544
2017-05-15T13:34:52.377Z,71328
2017-05-15T13:35:53.133Z,75680
2017-05-15T13:36:53.894Z,71200
2017-05-15T13:37:54.651Z,71968
2017-05-15T13:38:55.658Z,65792
2017-05-15T13:39:56.408Z,68192
2017-05-15T13:40:57.164Z,67552
2017-05-15T13:41:57.921Z,63648
2017-05-15T13:42:58.680Z,62432
2017-05-15T13:43:59.689Z,61216
2017-05-15T13:45:00.440Z,63552
2017-05-15T13:46:01.223Z,63040
2017-05-15T13:47:02.241Z,66368
2017-05-15T13:48:03.000Z,66720
2017-05-15T13:49:04.008Z,65824
2017-05-15T13:50:04.765Z,69248
2017-05-15T13:51:05.521Z,70272
2017-05-15T13:52:06.278Z,66304
2017-05-15T13:53:07.036Z,11064
2017-05-15T13:54:08.039Z,16268
2017-05-15T13:55:08.794Z,37120
2017-05-15T13:56:09.551Z,64160
2017-05-15T13:57:10.336Z,60608
2017-05-15T13:58:11.092Z,55744
2017-05-15T13:59:12.098Z,60736
2017-05-15T14:00:12.854Z,62048
2017-05-15T14:01:13.608Z,67008
2017-05-15T14:02:14.370Z,69152
2017-05-15T14:03:15.120Z,68416
2017-05-15T14:04:16.125Z,72224
2017-05-15T14:05:16.881Z,72896
2017-05-15T14:06:17.638Z,70112
2017-05-15T14:07:18.397Z,68928
2017-05-15T14:08:19.156Z,66688
2017-05-15T14:09:20.162Z,67232
2017-05-15T14:10:20.921Z,64480
2017-05-15T14:11:21.679Z,64128
2017-05-15T14:12:22.462Z,64320
2017-05-15T14:13:23.221Z,63776
2017-05-15T14:14:24.228Z,65184
2017-05-15T14:15:25.011Z,61440
2017-05-15T14:16:25.769Z,63936
2017-05-15T14:17:26.550Z,60160
2017-05-15T14:18:27.309Z,60288
2017-05-15T14:19:28.317Z,62144
2017-05-15T14:20:29.073Z,61536
2017-05-15T14:21:29.832Z,58976
2017-05-15T14:22:30.617Z,58976
2017-05-15T14:23:31.373Z,56768
2017-05-15T14:24:32.381Z,57088
2017-05-15T14:25:33.137Z,54976
2017-05-15T14:26:33.893Z,54176
2017-05-15T14:27:34.679Z,37376
2017-05-15T14:28:35.432Z,32672
2017-05-15T14:29:36.439Z,60672
2017-05-15T14:30:37.196Z,62784
2017-05-15T14:31:37.954Z,61376
2017-05-15T14:32:38.710Z,62336
2017-05-15T14:33:39.465Z,59648
2017-05-15T14:34:40.470Z,60160
2017-05-15T14:35:41.227Z,63040
2017-05-15T14:36:41.985Z,63520
2017-05-15T14:37:42.740Z,62240
2017-05-15T14:38:43.500Z,60384
2017-05-15T14:39:44.509Z,60320
2017-05-15T14:40:45.264Z,59776
2017-05-15T14:41:46.020Z,60768
2017-05-15T14:42:46.776Z,58976
2017-05-15T14:43:47.536Z,59456
2017-05-15T14:44:48.540Z,58784
2017-05-15T14:45:49.299Z,58912
2017-05-15T14:46:50.056Z,59360
2017-05-15T14:47:50.810Z,59072
2017-05-15T14:48:51.566Z,58816
2017-05-15T14:49:52.577Z,56896
2017-05-15T14:50:53.334Z,59136